
Distance (Route):
Temperature : -23.4°C
Humidity : 37.4%
Pressure : 0hPa| Receiver | Date | Latitude | Longitude | Direction | Speed | Altitude | Climb | Temperature | Humidity | Pressure | Voltage | Killtimer | Uptime | BKT | XDATA |
|---|---|---|---|---|---|---|---|---|---|---|---|---|---|---|---|
| LZ4TU-5 | 2026-08-30 06:51:31 | 43.11145 | 20.36250 | 117° | 37km/h | 8113m | -19.2m/s | -23.4°C | 37.4% | 0hPa | 0V | 00:00:00 | 00:00:00 | 00:00:00 | |
| LZ4TU-5 | 2026-08-30 06:51:26 | 43.11167 | 20.36193 | 121° | 40km/h | 8213m | -18.9m/s | -24.2°C | 45.5% | 0hPa | 0V | 00:00:00 | 00:00:00 | 00:00:00 | |
| LZ4TU-5 | 2026-08-30 06:49:53 | 43.11738 | 20.34983 | 122° | 40km/h | 10099m | -20.1m/s | -39.5°C | 51.9% | 0hPa | 0V | 00:00:00 | 00:00:00 | 00:00:00 | |
| LZ4TU-5 | 2026-08-30 06:49:48 | 43.11765 | 20.34926 | 126° | 40km/h | 10204m | -20.1m/s | -40.5°C | 53.5% | 0hPa | 0V | 00:00:00 | 00:00:00 | 00:00:00 | |
| LZ4TU-5 | 2026-08-30 06:47:37 | 43.12603 | 20.32989 | 122° | 47km/h | 13131m | -25.1m/s | -57.7°C | 8.6% | 0hPa | 0V | 00:00:00 | 00:00:00 | 00:00:00 | |
| LZ4TU-5 | 2026-08-30 06:47:32 | 43.12632 | 20.32919 | 115° | 47km/h | 13261m | -24.6m/s | -58.1°C | 7.7% | 0hPa | 0V | 00:00:00 | 00:00:00 | 00:00:00 | |
| LZ4TU-5 | 2026-08-30 06:45:58 | 43.13086 | 20.31464 | 91° | 33km/h | 15815m | -29.6m/s | -59.5°C | 0.0% | 0hPa | 0V | 00:00:00 | 00:00:00 | 00:00:00 | |
| LZ4TU-5 | 2026-08-30 06:45:53 | 43.13086 | 20.31404 | 92° | 35km/h | 15968m | -30.4m/s | -59.5°C | 0.0% | 0hPa | 0V | 00:00:00 | 00:00:00 | 00:00:00 | |
| LZ4TU-5 | 2026-08-30 06:44:30 | 43.13134 | 20.30701 | 115° | 18km/h | 18698m | -35.9m/s | -58.0°C | 0.0% | 0hPa | 0V | 00:00:00 | 00:00:00 | 00:00:00 | |
| LZ4TU-5 | 2026-08-30 06:44:25 | 43.13142 | 20.30687 | 167° | 9km/h | 18874m | -37.2m/s | -56.6°C | 0% | 0hPa | 0V | 00:00:00 | 00:00:00 | 00:00:00 | |
| LZ4TU-5 | 2026-08-30 06:43:01 | 43.13162 | 20.30959 | 274° | 26km/h | 22356m | -45.5m/s | -54.7°C | 0.0% | 0hPa | 0V | 00:00:00 | 00:00:00 | 00:00:00 | |
| LZ4TU-5 | 2026-08-30 06:42:57 | 43.13157 | 20.30996 | 288° | 29km/h | 22542m | -45.8m/s | -54.9°C | 0.0% | 0hPa | 0V | 00:00:00 | 00:00:00 | 00:00:00 | |
| LZ4TU-5 | 2026-08-30 06:42:52 | 43.13143 | 20.31042 | 298° | 22km/h | 22779m | -47.2m/s | -54.9°C | 0.0% | 0hPa | 0V | 00:00:00 | 00:00:00 | 00:00:00 | |
| LZ4TU-5 | 2026-08-30 06:41:15 | 43.13060 | 20.31325 | 209° | 7km/h | 28245m | -73.2m/s | -44.2°C | 0.9% | 0hPa | 0V | 00:00:00 | 00:00:00 | 00:00:00 | |
| LZ4TU-5 | 2026-08-30 06:41:10 | 43.13067 | 20.31333 | 197° | 4km/h | 28610m | -73.7m/s | -44.7°C | 1.2% | 0hPa | 0V | 00:00:00 | 00:00:00 | 00:00:00 | |
| OM5KV | 2026-08-30 06:39:45 | 43.13044 | 20.31250 | 40° | 35km/h | 31328m | 5.4m/s | -43.6°C | 2.6% | 0hPa | 0V | 00:00:00 | 00:00:00 | 00:00:00 | |
| LZ4TU-5 | 2026-08-30 06:39:44 | 43.13039 | 20.31242 | 53° | 31km/h | 31321m | 7.9m/s | -43.6°C | 2.6% | 0hPa | 0V | 00:00:00 | 00:00:00 | 00:00:00 | |
| LZ4TU-5 | 2026-08-30 06:39:39 | 43.13029 | 20.31220 | 347° | 9km/h | 31283m | 8.7m/s | -44.0°C | 2.7% | 0hPa | 0V | 00:00:00 | 00:00:00 | 00:00:00 | |
| OM5KV | 2026-08-30 06:39:28 | 43.12973 | 20.31170 | 352° | 24km/h | 31204m | 9.2m/s | -44.0°C | 2.7% | 0hPa | 0V | 00:00:00 | 00:00:00 | 00:00:00 | |
| OM5KV | 2026-08-30 06:39:21 | 43.12912 | 20.31160 | 67° | 26km/h | 31150m | 8.1m/s | -43.8°C | 2.7% | 0hPa | 0V | 00:00:00 | 00:00:00 | 00:00:00 | |
| OM5KV | 2026-08-30 06:39:10 | 43.12823 | 20.31160 | 36° | 16km/h | 31076m | 9.2m/s | -43.9°C | 2.7% | 0hPa | 0V | 00:00:00 | 00:00:00 | 00:00:00 | |
| OM5KV | 2026-08-30 06:38:56 | 43.12772 | 20.31170 | 14° | 13km/h | 30969m | 7.8m/s | -43.2°C | 2.5% | 0hPa | 0V | 00:00:00 | 00:00:00 | 00:00:00 | |
| OM5KV | 2026-08-30 06:38:48 | 43.12732 | 20.31182 | 329° | 13km/h | 30910m | 7.4m/s | -42.9°C | 2.4% | 0hPa | 0V | 00:00:00 | 00:00:00 | 00:00:00 | |
| OM5KV | 2026-08-30 06:38:47 | 43.12730 | 20.31185 | 275° | 13km/h | 30902m | 8.7m/s | -42.9°C | 2.4% | 0hPa | 0V | 00:00:00 | 00:00:00 | 00:00:00 | |
| OM5KV | 2026-08-30 06:38:39 | 43.12714 | 20.31221 | 5° | 15km/h | 30850m | 6.4m/s | -42.7°C | 2.2% | 0hPa | 0V | 00:00:00 | 00:00:00 | 00:00:00 | |
| OM5KV | 2026-08-30 06:38:34 | 43.12724 | 20.31249 | 266° | 37km/h | 30806m | 7.1m/s | -43.1°C | 2.3% | 0hPa | 0V | 00:00:00 | 00:00:00 | 00:00:00 | |
| OM5KV | 2026-08-30 06:38:32 | 43.12723 | 20.31270 | 287° | 26km/h | 30795m | 7.0m/s | -43.3°C | 2.4% | 0hPa | 0V | 00:00:00 | 00:00:00 | 00:00:00 | |
| OM5KV | 2026-08-30 06:38:28 | 43.12715 | 20.31276 | 19° | 11km/h | 30761m | 5.8m/s | -43.5°C | 2.4% | 0hPa | 0V | 00:00:00 | 00:00:00 | 00:00:00 | |
| OM5KV | 2026-08-30 06:38:27 | 43.12712 | 20.31276 | 341° | 9km/h | 30755m | 7.6m/s | -43.6°C | 2.4% | 0hPa | 0V | 00:00:00 | 00:00:00 | 00:00:00 | |
| OM5KV | 2026-08-30 06:38:21 | 43.12718 | 20.31351 | 238° | 42km/h | 30708m | 7.2m/s | -44.2°C | 2.6% | 0hPa | 0V | 00:00:00 | 00:00:00 | 00:00:00 | |
| LZ4TU-5 | 2026-08-30 06:38:13 | 43.12703 | 20.31402 | 255° | 13km/h | 30652m | 8.2m/s | -44.3°C | 2.6% | 0hPa | 0V | 00:00:00 | 00:00:00 | 00:00:00 | |
| OM5KV | 2026-08-30 06:38:11 | 43.12713 | 20.31413 | 211° | 38km/h | 30633m | 9.3m/s | -44.2°C | 2.6% | 0hPa | 0V | 00:00:00 | 00:00:00 | 00:00:00 | |
| LZ4TU-5 | 2026-08-30 06:38:09 | 43.12731 | 20.31433 | 232° | 51km/h | 30617m | 6.4m/s | -44.2°C | 0% | 0hPa | 0V | 00:00:00 | 00:00:00 | 00:00:00 | |
| OM5KV | 2026-08-30 06:38:02 | 43.12728 | 20.31473 | 322° | 13km/h | 30567m | 4.4m/s | -44.0°C | 2.5% | 0hPa | 0V | 00:00:00 | 00:00:00 | 00:00:00 | |
| OM5KV | 2026-08-30 06:37:58 | 43.12749 | 20.31512 | 239° | 55km/h | 30532m | 6.7m/s | -43.9°C | 2.5% | 0hPa | 0V | 00:00:00 | 00:00:00 | 00:00:00 | |
| OM5KV | 2026-08-30 06:37:46 | 43.12754 | 20.31562 | 247° | 46km/h | 30450m | 6.7m/s | -43.9°C | 2.5% | 0hPa | 0V | 00:00:00 | 00:00:00 | 00:00:00 | |
| OM5KV | 2026-08-30 06:37:29 | 43.12740 | 20.31622 | 61° | 26km/h | 30320m | 8.4m/s | -43.7°C | 2.4% | 0hPa | 0V | 00:00:00 | 00:00:00 | 00:00:00 | |
| OM5KV | 2026-08-30 06:37:24 | 43.12734 | 20.31605 | 271° | 20km/h | 30282m | 10.2m/s | -43.7°C | 2.4% | 0hPa | 0V | 00:00:00 | 00:00:00 | 00:00:00 | |
| OM5KV | 2026-08-30 06:37:13 | 43.12693 | 20.31624 | 5° | 13km/h | 30205m | 7.2m/s | -44.1°C | 2.4% | 0hPa | 0V | 00:00:00 | 00:00:00 | 00:00:00 | |
| OM5KV | 2026-08-30 06:37:06 | 43.12667 | 20.31670 | 28° | 31km/h | 30153m | 7.3m/s | -44.1°C | 2.5% | 0hPa | 0V | 00:00:00 | 00:00:00 | 00:00:00 | |
| OM5KV | 2026-08-30 06:37:04 | 43.12659 | 20.31653 | 86° | 31km/h | 30136m | 8.6m/s | -44.0°C | 2.4% | 0hPa | 0V | 00:00:00 | 00:00:00 | 00:00:00 | |
| OM5KV | 2026-08-30 06:37:00 | 43.12667 | 20.31635 | 263° | 13km/h | 30113m | 8.5m/s | -44.4°C | 2.5% | 0hPa | 0V | 00:00:00 | 00:00:00 | 00:00:00 | |
| OM5KV | 2026-08-30 06:36:57 | 43.12652 | 20.31660 | 319° | 46km/h | 30090m | 3.8m/s | -44.5°C | 2.6% | 0hPa | 0V | 00:00:00 | 00:00:00 | 00:00:00 | |
| OM5KV | 2026-08-30 06:36:51 | 43.12651 | 20.31655 | 127° | 31km/h | 30043m | 6.3m/s | -44.5°C | 2.6% | 0hPa | 0V | 00:00:00 | 00:00:00 | 00:00:00 | |
| OM5KV | 2026-08-30 06:36:49 | 43.12658 | 20.31642 | 116° | 9km/h | 30031m | 5.4m/s | -44.4°C | 2.6% | 0hPa | 0V | 00:00:00 | 00:00:00 | 00:00:00 | |
| OM5KV | 2026-08-30 06:36:39 | 43.12626 | 20.31651 | 150° | 24km/h | 29964m | 8.4m/s | -44.1°C | 2.6% | 0hPa | 0V | 00:00:00 | 00:00:00 | 00:00:00 | |
| OM5KV | 2026-08-30 06:36:38 | 43.12631 | 20.31650 | 184° | 22km/h | 29962m | 1.5m/s | -44.1°C | 2.6% | 0hPa | 0V | 00:00:00 | 00:00:00 | 00:00:00 | |
| LZ4TU-5 | 2026-08-30 06:36:35 | 43.12634 | 20.31662 | 323° | 31km/h | 29942m | 9.9m/s | -44.1°C | 2.6% | 0hPa | 0V | 00:00:00 | 00:00:00 | 00:00:00 | |
| OM5KV | 2026-08-30 06:36:33 | 43.12612 | 20.31676 | 344° | 57km/h | 29926m | 5.6m/s | -43.9°C | 2.6% | 0hPa | 0V | 00:00:00 | 00:00:00 | 00:00:00 | |
| LZ4TU-5 | 2026-08-30 06:36:31 | 43.12593 | 20.31678 | 19° | 20km/h | 29916m | 5.6m/s | -43.8°C | 2.6% | 0hPa | 0V | 00:00:00 | 00:00:00 | 00:00:00 | |
| OM5KV | 2026-08-30 06:36:08 | 43.12546 | 20.31720 | 337° | 27km/h | 29752m | 5.5m/s | -43.5°C | 2.6% | 0hPa | 0V | 00:00:00 | 00:00:00 | 00:00:00 | |
| OM5KV | 2026-08-30 06:35:58 | 43.12545 | 20.31780 | 326° | 31km/h | 29681m | 9.1m/s | -43.3°C | 2.5% | 0hPa | 0V | 00:00:00 | 00:00:00 | 00:00:00 | |
| OM5KV | 2026-08-30 06:35:50 | 43.12536 | 20.31838 | 249° | 29km/h | 29628m | 4.9m/s | -43.1°C | 2.4% | 0hPa | 0V | 00:00:00 | 00:00:00 | 00:00:00 | |
| OM5KV | 2026-08-30 06:35:45 | 43.12531 | 20.31857 | 359° | 7km/h | 29595m | 4.7m/s | -42.9°C | 2.4% | 0hPa | 0V | 00:00:00 | 00:00:00 | 00:00:00 | |
| OM5KV | 2026-08-30 06:35:35 | 43.12532 | 20.31919 | 261° | 5km/h | 29524m | 6.5m/s | -43.0°C | 2.3% | 0hPa | 0V | 00:00:00 | 00:00:00 | 00:00:00 | |
| OM5KV | 2026-08-30 06:35:15 | 43.12532 | 20.32030 | 240° | 26km/h | 29391m | 4.7m/s | -42.8°C | 2.1% | 0hPa | 0V | 00:00:00 | 00:00:00 | 00:00:00 | |
| OM5KV | 2026-08-30 06:35:13 | 43.12533 | 20.32045 | 295° | 22km/h | 29375m | 7.5m/s | -42.8°C | 2.1% | 0hPa | 0V | 00:00:00 | 00:00:00 | 00:00:00 | |
| LZ4TU-5 | 2026-08-30 06:35:06 | 43.12529 | 20.32078 | 245° | 31km/h | 29332m | 5.2m/s | -43.3°C | 2.1% | 0hPa | 0V | 00:00:00 | 00:00:00 | 00:00:00 | |
| OM5KV | 2026-08-30 06:35:04 | 43.12535 | 20.32096 | 253° | 24km/h | 29320m | 8.0m/s | -43.4°C | 2.1% | 0hPa | 0V | 00:00:00 | 00:00:00 | 00:00:00 | |
| LZ4TU-5 | 2026-08-30 06:35:02 | 43.12533 | 20.32105 | 343° | 13km/h | 29306m | 5.5m/s | -43.4°C | 2.1% | 0hPa | 0V | 00:00:00 | 00:00:00 | 00:00:00 | |
| OM5KV | 2026-08-30 06:34:53 | 43.12534 | 20.32119 | 203° | 26km/h | 29240m | 11.0m/s | -43.1°C | 1.9% | 0hPa | 0V | 00:00:00 | 00:00:00 | 00:00:00 | |
| OM5KV | 2026-08-30 06:34:30 | 43.12615 | 20.32137 | 160° | 26km/h | 29078m | 6.5m/s | -44.1°C | 1.9% | 0hPa | 0V | 00:00:00 | 00:00:00 | 00:00:00 | |
| OM5KV | 2026-08-30 06:34:11 | 43.12660 | 20.32069 | 57° | 7km/h | 28949m | 6.6m/s | -46.2°C | 2.3% | 0hPa | 0V | 00:00:00 | 00:00:00 | 00:00:00 | |
| OM5KV | 2026-08-30 06:33:51 | 43.12687 | 20.32036 | 66° | 11km/h | 28815m | 7.4m/s | -46.9°C | 2.5% | 0hPa | 0V | 00:00:00 | 00:00:00 | 00:00:00 | |
| OM5KV | 2026-08-30 06:33:42 | 43.12684 | 20.32056 | 233° | 13km/h | 28751m | 7.1m/s | -46.6°C | 2.4% | 0hPa | 0V | 00:00:00 | 00:00:00 | 00:00:00 | |
| OM5KV | 2026-08-30 06:33:31 | 43.12690 | 20.32093 | 213° | 22km/h | 28669m | 7.0m/s | -46.6°C | 2.4% | 0hPa | 0V | 00:00:00 | 00:00:00 | 00:00:00 | |
| LZ4TU-5 | 2026-08-30 06:33:30 | 43.12694 | 20.32097 | 225° | 16km/h | 28662m | 6.7m/s | -46.7°C | 2.4% | 0hPa | 0V | 00:00:00 | 00:00:00 | 00:00:00 | |
| LZ4TU-5 | 2026-08-30 06:33:26 | 43.12695 | 20.32112 | 300° | 11km/h | 28631m | 6.8m/s | -46.6°C | 2.4% | 0hPa | 0V | 00:00:00 | 00:00:00 | 00:00:00 | |
| OM5KV | 2026-08-30 06:33:18 | 43.12716 | 20.32127 | 221° | 20km/h | 28574m | 7.7m/s | -46.4°C | 2.4% | 0hPa | 0V | 00:00:00 | 00:00:00 | 00:00:00 | |
| LZ4TU-5 | 2026-08-30 06:32:02 | 43.12836 | 20.32142 | 175° | 13km/h | 28033m | 6.9m/s | -46.4°C | 2.3% | 0hPa | 0V | 00:00:00 | 00:00:00 | 00:00:00 | |
| LZ4TU-5 | 2026-08-30 06:31:58 | 43.12851 | 20.32142 | 205° | 24km/h | 28004m | 6.4m/s | -46.3°C | 2.3% | 0hPa | 0V | 00:00:00 | 00:00:00 | 00:00:00 | |
| LZ4TU-5 | 2026-08-30 06:30:31 | 43.12851 | 20.32133 | 250° | 7km/h | 27420m | 6.4m/s | -46.9°C | 1.9% | 0hPa | 0V | 00:00:00 | 00:00:00 | 00:00:00 | |
| LZ4TU-5 | 2026-08-30 06:30:27 | 43.12849 | 20.32130 | 26° | 5km/h | 27393m | 4.5m/s | -47.0°C | 1.9% | 0hPa | 0V | 00:00:00 | 00:00:00 | 00:00:00 | |
| LZ4TU-5 | 2026-08-30 06:28:54 | 43.12903 | 20.32085 | 17° | 18km/h | 26790m | 9.6m/s | -49.9°C | 2.0% | 0hPa | 0V | 00:00:00 | 00:00:00 | 00:00:00 | |
| LZ4TU-5 | 2026-08-30 06:28:49 | 43.12884 | 20.32089 | 64° | 15km/h | 26756m | 6.2m/s | -50.3°C | 2.1% | 0hPa | 0V | 00:00:00 | 00:00:00 | 00:00:00 | |
| LZ4TU-5 | 2026-08-30 06:27:24 | 43.12660 | 20.32123 | 52° | 7km/h | 26189m | 6.6m/s | -49.6°C | 1.8% | 0hPa | 0V | 00:00:00 | 00:00:00 | 00:00:00 | |
| LZ4TU-5 | 2026-08-30 06:27:19 | 43.12646 | 20.32140 | 287° | 18km/h | 26154m | 7.7m/s | -49.5°C | 0% | 0hPa | 0V | 00:00:00 | 00:00:00 | 00:00:00 | |
| LZ4TU-5 | 2026-08-30 06:25:53 | 43.12591 | 20.32527 | 256° | 16km/h | 25554m | 6.8m/s | -51.0°C | 1.8% | 0hPa | 0V | 00:00:00 | 00:00:00 | 00:00:00 | |
| LZ4TU-5 | 2026-08-30 06:25:48 | 43.12580 | 20.32545 | 349° | 15km/h | 25526m | 5.3m/s | -51.3°C | 1.9% | 0hPa | 0V | 00:00:00 | 00:00:00 | 00:00:00 | |
| LZ4TU-5 | 2026-08-30 06:24:23 | 43.12300 | 20.33088 | 288° | 49km/h | 24960m | 4.9m/s | -51.0°C | 2.0% | 0hPa | 0V | 00:00:00 | 00:00:00 | 00:00:00 | |
| LZ4TU-5 | 2026-08-30 06:24:19 | 43.12276 | 20.33142 | 320° | 38km/h | 24939m | 6.3m/s | -51.0°C | 2.0% | 0hPa | 0V | 00:00:00 | 00:00:00 | 00:00:00 | |
| LZ4TU-5 | 2026-08-30 06:22:53 | 43.12250 | 20.33799 | 85° | 5km/h | 24388m | 5.9m/s | -51.8°C | 1.7% | 0hPa | 0V | 00:00:00 | 00:00:00 | 00:00:00 | |
| LZ4TU-5 | 2026-08-30 06:22:48 | 43.12239 | 20.33808 | 327° | 18km/h | 24359m | 7.9m/s | -52.0°C | 1.8% | 0hPa | 0V | 00:00:00 | 00:00:00 | 00:00:00 | |
| LZ4TU-5 | 2026-08-30 06:21:22 | 43.11998 | 20.34042 | 304° | 26km/h | 23821m | 6.9m/s | -53.7°C | 1.7% | 0hPa | 0V | 00:00:00 | 00:00:00 | 00:00:00 | |
| LZ4TU-5 | 2026-08-30 06:21:17 | 43.11987 | 20.34078 | 240° | 22km/h | 23790m | 5.7m/s | -53.9°C | 1.7% | 0hPa | 0V | 00:00:00 | 00:00:00 | 00:00:00 | |
| LZ4TU-5 | 2026-08-30 06:19:47 | 43.11936 | 20.34285 | 344° | 27km/h | 23222m | 6.2m/s | -54.4°C | 1.8% | 0hPa | 0V | 00:00:00 | 00:00:00 | 00:00:00 | |
| LZ4TU-5 | 2026-08-30 06:19:42 | 43.11928 | 20.34309 | 268° | 22km/h | 23190m | 5.7m/s | -54.4°C | 1.8% | 0hPa | 0V | 00:00:00 | 00:00:00 | 00:00:00 | |
| LZ4TU-5 | 2026-08-30 06:18:10 | 43.11691 | 20.34967 | 282° | 37km/h | 22616m | 6.5m/s | -55.2°C | 1.8% | 0hPa | 0V | 00:00:00 | 00:00:00 | 00:00:00 | |
| LZ4TU-5 | 2026-08-30 06:16:47 | 43.11730 | 20.35760 | 293° | 7km/h | 22098m | 4.1m/s | -55.1°C | 1.4% | 0hPa | 0V | 00:00:00 | 00:00:00 | 00:00:00 | |
| LZ4TU-5 | 2026-08-30 06:16:42 | 43.11738 | 20.35790 | 247° | 46km/h | 22073m | 6.7m/s | -55.5°C | 0% | 0hPa | 0V | 00:00:00 | 00:00:00 | 00:00:00 | |
| LZ4TU-5 | 2026-08-30 06:15:17 | 43.11857 | 20.35975 | 160° | 7km/h | 21564m | 5.0m/s | -56.1°C | 1.8% | 0hPa | 0V | 00:00:00 | 00:00:00 | 00:00:00 | |
| LZ4TU-5 | 2026-08-30 06:15:12 | 43.11855 | 20.35978 | 354° | 13km/h | 21536m | 5.1m/s | -56.1°C | 1.8% | 0hPa | 0V | 00:00:00 | 00:00:00 | 00:00:00 | |
| LZ4TU-5 | 2026-08-30 06:13:48 | 43.11762 | 20.36214 | 267° | 11km/h | 21033m | 5.5m/s | -56.4°C | 1.7% | 0hPa | 0V | 00:00:00 | 00:00:00 | 00:00:00 | |
| LZ4TU-5 | 2026-08-30 06:13:43 | 43.11767 | 20.36236 | 239° | 22km/h | 21003m | 5.6m/s | -56.3°C | 1.7% | 0hPa | 0V | 00:00:00 | 00:00:00 | 00:00:00 | |
| LZ4TU-5 | 2026-08-30 06:12:22 | 43.11742 | 20.36493 | 333° | 18km/h | 20524m | 5.3m/s | -56.7°C | 1.5% | 0hPa | 0V | 00:00:00 | 00:00:00 | 00:00:00 | |
| LZ4TU-5 | 2026-08-30 06:12:17 | 43.11729 | 20.36512 | 337° | 13km/h | 20494m | 6.1m/s | -56.7°C | 1.5% | 0hPa | 0V | 00:00:00 | 00:00:00 | 00:00:00 | |
| LZ4TU-5 | 2026-08-30 06:10:51 | 43.11733 | 20.36805 | 255° | 20km/h | 19996m | 4.4m/s | -56.2°C | 1.3% | 0hPa | 0V | 00:00:00 | 00:00:00 | 00:00:00 | |
| LZ4TU-5 | 2026-08-30 06:10:47 | 43.11739 | 20.36824 | 283° | 9km/h | 19973m | 6.0m/s | -56.4°C | 1.4% | 0hPa | 0V | 00:00:00 | 00:00:00 | 00:00:00 | |
| LZ4TU-5 | 2026-08-30 06:09:22 | 43.11918 | 20.36814 | 252° | 5km/h | 19457m | 6.4m/s | -57.1°C | 1.7% | 0hPa | 0V | 00:00:00 | 00:00:00 | 00:00:00 | |
| LZ4TU-5 | 2026-08-30 06:09:17 | 43.11926 | 20.36836 | 231° | 15km/h | 19430m | 5.6m/s | -57.1°C | 1.6% | 0hPa | 0V | 00:00:00 | 00:00:00 | 00:00:00 | |
| LZ4TU-5 | 2026-08-30 06:07:52 | 43.12202 | 20.37050 | 249° | 26km/h | 18945m | 5.3m/s | -57.2°C | 1.1% | 0hPa | 0V | 00:00:00 | 00:00:00 | 00:00:00 | |
| LZ4TU-5 | 2026-08-30 06:07:47 | 43.12221 | 20.37077 | 0° | 0km/h | 18918m | 6.3m/s | -57.4°C | 1.3% | 0hPa | 0V | 00:00:00 | 00:00:00 | 00:00:00 | |
| LZ4TU-5 | 2026-08-30 06:06:23 | 43.12091 | 20.36513 | 46° | 13km/h | 18423m | 5.9m/s | -59.9°C | 2.1% | 0hPa | 0V | 00:00:00 | 00:00:00 | 00:00:00 | |
| LZ4TU-5 | 2026-08-30 06:06:19 | 43.12078 | 20.36496 | 49° | 16km/h | 18398m | 5.8m/s | -59.9°C | 2.1% | 0hPa | 0V | 00:00:00 | 00:00:00 | 00:00:00 | |
| LZ4TU-5 | 2026-08-30 06:04:53 | 43.11888 | 20.36390 | 84° | 11km/h | 17901m | 5.7m/s | -58.2°C | 2.2% | 0hPa | 0V | 00:00:00 | 00:00:00 | 00:00:00 | |
| LZ4TU-5 | 2026-08-30 06:04:48 | 43.11879 | 20.36383 | 44° | 15km/h | 17873m | 5.2m/s | -58.3°C | 2.2% | 0hPa | 0V | 00:00:00 | 00:00:00 | 00:00:00 | |
| LZ4TU-5 | 2026-08-30 06:03:22 | 43.11871 | 20.35994 | 0° | 0km/h | 17393m | 6.7m/s | -58.3°C | 1.9% | 0hPa | 0V | 00:00:00 | 00:00:00 | 00:00:00 | |
| LZ4TU-5 | 2026-08-30 06:03:17 | 43.11882 | 20.35966 | 129° | 35km/h | 17364m | 6.3m/s | -58.2°C | 2.0% | 0hPa | 0V | 00:00:00 | 00:00:00 | 00:00:00 | |
| LZ4TU-5 | 2026-08-30 06:01:52 | 43.12191 | 20.34942 | 111° | 53km/h | 16886m | 5.6m/s | -58.4°C | 2.9% | 0hPa | 0V | 00:00:00 | 00:00:00 | 00:00:00 | |
| LZ4TU-5 | 2026-08-30 06:01:47 | 43.12206 | 20.34862 | 102° | 42km/h | 16859m | 5.4m/s | -58.2°C | 0% | 0hPa | 0V | 00:00:00 | 00:00:00 | 00:00:00 | |
| LZ4TU-5 | 2026-08-30 06:00:23 | 43.12375 | 20.33595 | 83° | 35km/h | 16409m | 4.8m/s | -59.2°C | 3.3% | 0hPa | 0V | 00:00:00 | 00:00:00 | 00:00:00 | |
| LZ4TU-5 | 2026-08-30 06:00:18 | 43.12374 | 20.33537 | 83° | 31km/h | 16383m | 5.6m/s | -59.1°C | 3.4% | 0hPa | 0V | 00:00:00 | 00:00:00 | 00:00:00 | |
| LZ4TU-5 | 2026-08-30 05:58:53 | 43.12369 | 20.32790 | 91° | 47km/h | 15919m | 4.5m/s | -59.2°C | 4.1% | 0hPa | 0V | 00:00:00 | 00:00:00 | 00:00:00 | |
| LZ4TU-5 | 2026-08-30 05:58:48 | 43.12365 | 20.32727 | 83° | 31km/h | 15893m | 4.7m/s | -59.2°C | 4.1% | 0hPa | 0V | 00:00:00 | 00:00:00 | 00:00:00 | |
| LZ4TU-5 | 2026-08-30 05:57:22 | 43.12430 | 20.31610 | 96° | 47km/h | 15451m | 4.7m/s | -59.8°C | 5.0% | 0hPa | 0V | 00:00:00 | 00:00:00 | 00:00:00 | |
| LZ4TU-5 | 2026-08-30 05:57:17 | 43.12444 | 20.31545 | 123° | 37km/h | 15424m | 5.0m/s | -59.6°C | 5.0% | 0hPa | 0V | 00:00:00 | 00:00:00 | 00:00:00 | |
| LZ4TU-5 | 2026-08-30 05:55:53 | 43.12837 | 20.30545 | 128° | 66km/h | 14971m | 3.7m/s | -58.9°C | 6.6% | 0hPa | 0V | 00:00:00 | 00:00:00 | 00:00:00 | |
| LZ4TU-5 | 2026-08-30 05:55:48 | 43.12872 | 20.30464 | 118° | 46km/h | 14946m | 5.4m/s | -59.5°C | 6.9% | 0hPa | 0V | 00:00:00 | 00:00:00 | 00:00:00 | |
| LZ4TU-5 | 2026-08-30 05:54:20 | 43.13369 | 20.28872 | 128° | 42km/h | 14474m | 5.4m/s | -58.7°C | 11.6% | 0hPa | 0V | 00:00:00 | 00:00:00 | 00:00:00 | |
| LZ4TU-5 | 2026-08-30 05:54:16 | 43.13392 | 20.28818 | 111° | 53km/h | 14453m | 5.1m/s | -58.8°C | 12.0% | 0hPa | 0V | 00:00:00 | 00:00:00 | 00:00:00 | |
| LZ4TU-5 | 2026-08-30 05:52:36 | 43.14047 | 20.27145 | 119° | 47km/h | 13867m | 6.4m/s | -60.7°C | 17.5% | 0hPa | 0V | 00:00:00 | 00:00:00 | 00:00:00 | |
| LZ4TU-5 | 2026-08-30 05:52:31 | 43.14084 | 20.27071 | 120° | 55km/h | 13837m | 5.5m/s | -60.7°C | 17.6% | 0hPa | 0V | 00:00:00 | 00:00:00 | 00:00:00 | |
| LZ4TU-5 | 2026-08-30 05:50:58 | 43.14454 | 20.25425 | 98° | 31km/h | 13292m | 5.7m/s | -58.5°C | 19.4% | 0hPa | 0V | 00:00:00 | 00:00:00 | 00:00:00 | |
| LZ4TU-5 | 2026-08-30 05:50:53 | 43.14459 | 20.25354 | 103° | 57km/h | 13268m | 5.8m/s | -58.3°C | 19.6% | 0hPa | 0V | 00:00:00 | 00:00:00 | 00:00:00 | |
| LZ4TU-5 | 2026-08-30 05:49:23 | 43.14976 | 20.23943 | 130° | 58km/h | 12815m | 4.4m/s | -58.0°C | 28.3% | 0hPa | 0V | 00:00:00 | 00:00:00 | 00:00:00 | |
| LZ4TU-5 | 2026-08-30 05:49:18 | 43.15028 | 20.23862 | 135° | 62km/h | 12788m | 4.4m/s | -57.9°C | 28.8% | 0hPa | 0V | 00:00:00 | 00:00:00 | 00:00:00 | |
| LZ4TU-5 | 2026-08-30 05:47:54 | 43.15769 | 20.22351 | 118° | 64km/h | 12326m | 4.7m/s | -56.5°C | 35.4% | 0hPa | 0V | 00:00:00 | 00:00:00 | 00:00:00 | |
| LZ4TU-5 | 2026-08-30 05:47:49 | 43.15811 | 20.22256 | 130° | 51km/h | 12294m | 7.1m/s | -56.3°C | 35.6% | 0hPa | 0V | 00:00:00 | 00:00:00 | 00:00:00 | |
| LZ4TU-5 | 2026-08-30 05:46:24 | 43.16438 | 20.20998 | 120° | 53km/h | 11791m | 4.7m/s | -53.4°C | 43.1% | 0hPa | 0V | 00:00:00 | 00:00:00 | 00:00:00 | |
| LZ4TU-5 | 2026-08-30 05:46:19 | 43.16463 | 20.20938 | 131° | 44km/h | 11764m | 5.4m/s | -53.1°C | 43.0% | 0hPa | 0V | 00:00:00 | 00:00:00 | 00:00:00 | |
| LZ4TU-5 | 2026-08-30 05:44:54 | 43.17079 | 20.19848 | 139° | 55km/h | 11256m | 6.6m/s | -49.8°C | 43.1% | 0hPa | 0V | 00:00:00 | 00:00:00 | 00:00:00 | |
| LZ4TU-5 | 2026-08-30 05:44:50 | 43.17109 | 20.19795 | 119° | 49km/h | 11235m | 5.0m/s | -49.6°C | 0% | 0hPa | 0V | 00:00:00 | 00:00:00 | 00:00:00 | |
| LZ4TU-5 | 2026-08-30 05:43:25 | 43.17832 | 20.18683 | 129° | 51km/h | 10773m | 3.8m/s | -46.2°C | 45.4% | 0hPa | 0V | 00:00:00 | 00:00:00 | 00:00:00 | |
| LZ4TU-5 | 2026-08-30 05:43:20 | 43.17859 | 20.18610 | 128° | 49km/h | 10749m | 4.4m/s | -46.0°C | 46.0% | 0hPa | 0V | 00:00:00 | 00:00:00 | 00:00:00 | |
| LZ4TU-5 | 2026-08-30 05:41:58 | 43.18383 | 20.17558 | 128° | 26km/h | 10305m | 5.1m/s | -42.6°C | 43.4% | 0hPa | 0V | 00:00:00 | 00:00:00 | 00:00:00 | |
| LZ4TU-5 | 2026-08-30 05:41:54 | 43.18399 | 20.17534 | 121° | 31km/h | 10283m | 5.5m/s | -42.4°C | 43.3% | 0hPa | 0V | 00:00:00 | 00:00:00 | 00:00:00 | |
| LZ4TU-5 | 2026-08-30 05:40:35 | 43.18807 | 20.16489 | 122° | 42km/h | 9850m | 5.2m/s | -38.9°C | 46.2% | 0hPa | 0V | 00:00:00 | 00:00:00 | 00:00:00 | |
| LZ4TU-5 | 2026-08-30 05:40:30 | 43.18846 | 20.16424 | 122° | 46km/h | 9824m | 6.2m/s | -38.7°C | 0% | 0hPa | 0V | 00:00:00 | 00:00:00 | 00:00:00 | |
| LZ4TU-5 | 2026-08-30 05:39:08 | 43.19341 | 20.15428 | 118° | 47km/h | 9367m | 5.8m/s | -34.9°C | 41.7% | 0hPa | 0V | 00:00:00 | 00:00:00 | 00:00:00 | |
| LZ4TU-5 | 2026-08-30 05:39:04 | 43.19374 | 20.15380 | 146° | 44km/h | 9343m | 5.5m/s | -34.7°C | 41.5% | 0hPa | 0V | 00:00:00 | 00:00:00 | 00:00:00 | |
| LZ4TU-5 | 2026-08-30 05:37:36 | 43.19892 | 20.14277 | 117° | 46km/h | 8819m | 4.8m/s | -30.6°C | 38.6% | 0hPa | 0V | 00:00:00 | 00:00:00 | 00:00:00 | |
| LZ4TU-5 | 2026-08-30 05:37:31 | 43.19923 | 20.14198 | 133° | 51km/h | 8793m | 5.7m/s | -30.4°C | 39.3% | 0hPa | 0V | 00:00:00 | 00:00:00 | 00:00:00 | |
| LZ4TU-5 | 2026-08-30 05:36:09 | 43.20455 | 20.13225 | 141° | 55km/h | 8350m | 7.1m/s | -26.8°C | 32.9% | 0hPa | 0V | 00:00:00 | 00:00:00 | 00:00:00 | |
| LZ4TU-5 | 2026-08-30 05:36:05 | 43.20489 | 20.13184 | 110° | 42km/h | 8326m | 8.4m/s | -26.6°C | 31.7% | 0hPa | 0V | 00:00:00 | 00:00:00 | 00:00:00 | |
| LZ4TU-5 | 2026-08-30 05:36:00 | 43.20502 | 20.13101 | 110° | 27km/h | 8295m | 7.1m/s | -26.3°C | 30.6% | 0hPa | 0V | 00:00:00 | 00:00:00 | 00:00:00 |